sensor_id;sensor_type;location;lat;lon;timestamp;pressure;altitude;pressure_sealevel;temperature;humidity
59971;BME280;45825;45.434;9.116;2023-11-19T00:00:51;100902.72;;;9.54;100.00
59971;BME280;45825;45.434;9.116;2023-11-19T00:03:17;100899.50;;;9.47;100.00
59971;BME280;45825;45.434;9.116;2023-11-19T00:05:43;100906.47;;;9.48;100.00
59971;BME280;45825;45.434;9.116;2023-11-19T00:08:09;100908.63;;;9.81;100.00
59971;BME280;45825;45.434;9.116;2023-11-19T00:10:35;100907.41;;;9.68;100.00
59971;BME280;45825;45.434;9.116;2023-11-19T00:13:00;100898.94;;;9.61;100.00
59971;BME280;45825;45.434;9.116;2023-11-19T00:15:25;100910.44;;;9.58;100.00
59971;BME280;45825;45.434;9.116;2023-11-19T00:17:51;100917.84;;;9.48;100.00
59971;BME280;45825;45.434;9.116;2023-11-19T00:20:17;100907.94;;;9.55;100.00
59971;BME280;45825;45.434;9.116;2023-11-19T00:22:43;100897.47;;;9.54;100.00
59971;BME280;45825;45.434;9.116;2023-11-19T00:25:09;100901.56;;;9.61;100.00
59971;BME280;45825;45.434;9.116;2023-11-19T00:27:35;100892.81;;;9.60;100.00
59971;BME280;45825;45.434;9.116;2023-11-19T00:30:01;100880.06;;;9.51;100.00
59971;BME280;45825;45.434;9.116;2023-11-19T00:32:26;100887.63;;;9.59;100.00
59971;BME280;45825;45.434;9.116;2023-11-19T00:34:52;100882.63;;;9.53;100.00
59971;BME280;45825;45.434;9.116;2023-11-19T00:37:17;100881.56;;;9.57;100.00
59971;BME280;45825;45.434;9.116;2023-11-19T00:39:43;100885.00;;;9.59;100.00
59971;BME280;45825;45.434;9.116;2023-11-19T00:42:09;100880.75;;;9.56;100.00
59971;BME280;45825;45.434;9.116;2023-11-19T00:44:35;100880.31;;;9.45;100.00
59971;BME280;45825;45.434;9.116;2023-11-19T00:47:00;100888.13;;;9.46;100.00
59971;BME280;45825;45.434;9.116;2023-11-19T00:49:26;100876.00;;;9.44;100.00
59971;BME280;45825;45.434;9.116;2023-11-19T00:51:51;100880.63;;;9.37;100.00
59971;BME280;45825;45.434;9.116;2023-11-19T00:54:16;100887.00;;;9.09;100.00
59971;BME280;45825;45.434;9.116;2023-11-19T00:56:42;100879.25;;;9.06;100.00
59971;BME280;45825;45.434;9.116;2023-11-19T00:59:07;100879.59;;;9.19;100.00
59971;BME280;45825;45.434;9.116;2023-11-19T01:01:33;100880.28;;;9.24;100.00
59971;BME280;45825;45.434;9.116;2023-11-19T01:03:58;100875.03;;;9.24;100.00
59971;BME280;45825;45.434;9.116;2023-11-19T01:06:28;100882.41;;;9.14;100.00
59971;BME280;45825;45.434;9.116;2023-11-19T01:08:54;100875.03;;;9.24;100.00
59971;BME280;45825;45.434;9.116;2023-11-19T01:11:21;100888.16;;;9.24;100.00
59971;BME280;45825;45.434;9.116;2023-11-19T01:13:46;100887.47;;;9.19;100.00
59971;BME280;45825;45.434;9.116;2023-11-19T01:16:11;100882.13;;;9.22;100.00
59971;BME280;45825;45.434;9.116;2023-11-19T01:18:38;100887.47;;;9.19;100.00
59971;BME280;45825;45.434;9.116;2023-11-19T01:21:04;100883.22;;;9.16;100.00
59971;BME280;45825;45.434;9.116;2023-11-19T01:23:29;100887.66;;;9.14;100.00
59971;BME280;45825;45.434;9.116;2023-11-19T01:25:54;100880.59;;;9.16;100.00
59971;BME280;45825;45.434;9.116;2023-11-19T01:28:19;100867.25;;;9.21;100.00
59971;BME280;45825;45.434;9.116;2023-11-19T01:30:45;100870.75;;;9.21;100.00
59971;BME280;45825;45.434;9.116;2023-11-19T01:33:10;100863.00;;;9.18;100.00
59971;BME280;45825;45.434;9.116;2023-11-19T01:35:35;100865.72;;;9.15;100.00
59971;BME280;45825;45.434;9.116;2023-11-19T01:38:01;100869.44;;;9.09;100.00
59971;BME280;45825;45.434;9.116;2023-11-19T01:40:26;100874.78;;;9.08;100.00
59971;BME280;45825;45.434;9.116;2023-11-19T01:42:51;100866.13;;;9.06;100.00
59971;BME280;45825;45.434;9.116;2023-11-19T01:45:26;100856.03;;;8.95;100.00
59971;BME280;45825;45.434;9.116;2023-11-19T01:47:53;100854.13;;;8.99;100.00
59971;BME280;45825;45.434;9.116;2023-11-19T01:50:19;100850.59;;;9.00;100.00
59971;BME280;45825;45.434;9.116;2023-11-19T01:52:44;100853.22;;;9.00;100.00
59971;BME280;45825;45.434;9.116;2023-11-19T01:55:10;100842.16;;;8.91;100.00
59971;BME280;45825;45.434;9.116;2023-11-19T01:57:36;100846.50;;;8.92;100.00
59971;BME280;45825;45.434;9.116;2023-11-19T02:00:03;100848.41;;;8.89;100.00
59971;BME280;45825;45.434;9.116;2023-11-19T02:02:29;100845.28;;;8.79;100.00
59971;BME280;45825;45.434;9.116;2023-11-19T02:04:56;100841.72;;;8.80;100.00
59971;BME280;45825;45.434;9.116;2023-11-19T02:07:21;100838.09;;;8.84;100.00
59971;BME280;45825;45.434;9.116;2023-11-19T02:09:47;100840.53;;;8.89;100.00
59971;BME280;45825;45.434;9.116;2023-11-19T02:12:12;100834.41;;;8.88;100.00
59971;BME280;45825;45.434;9.116;2023-11-19T02:14:38;100830.56;;;8.75;100.00
59971;BME280;45825;45.434;9.116;2023-11-19T02:17:04;100835.06;;;8.47;100.00
59971;BME280;45825;45.434;9.116;2023-11-19T02:19:29;100832.38;;;8.49;100.00
59971;BME280;45825;45.434;9.116;2023-11-19T02:21:55;100818.59;;;8.44;100.00
59971;BME280;45825;45.434;9.116;2023-11-19T02:24:22;100824.63;;;8.46;100.00
59971;BME280;45825;45.434;9.116;2023-11-19T02:26:58;100822.34;;;8.36;100.00
59971;BME280;45825;45.434;9.116;2023-11-19T02:29:27;100822.00;;;8.46;100.00
59971;BME280;45825;45.434;9.116;2023-11-19T02:31:52;100824.66;;;8.44;100.00
59971;BME280;45825;45.434;9.116;2023-11-19T02:34:20;100825.16;;;8.56;100.00
59971;BME280;45825;45.434;9.116;2023-11-19T02:36:47;100821.56;;;8.58;100.00
59971;BME280;45825;45.434;9.116;2023-11-19T02:39:12;100809.22;;;8.60;100.00
59971;BME280;45825;45.434;9.116;2023-11-19T02:41:38;100802.41;;;8.56;100.00
59971;BME280;45825;45.434;9.116;2023-11-19T02:44:05;100807.00;;;8.49;100.00
59971;BME280;45825;45.434;9.116;2023-11-19T02:46:31;100815.00;;;8.46;100.00
59971;BME280;45825;45.434;9.116;2023-11-19T02:48:57;100814.91;;;8.48;100.00
59971;BME280;45825;45.434;9.116;2023-11-19T02:51:22;100814.59;;;8.33;100.00
59971;BME280;45825;45.434;9.116;2023-11-19T02:53:47;100818.47;;;8.23;100.00
59971;BME280;45825;45.434;9.116;2023-11-19T02:56:13;100805.03;;;8.08;100.00
59971;BME280;45825;45.434;9.116;2023-11-19T02:58:50;100812.34;;;7.99;100.00
59971;BME280;45825;45.434;9.116;2023-11-19T03:01:22;100804.94;;;7.86;100.00
59971;BME280;45825;45.434;9.116;2023-11-19T03:03:56;100802.72;;;7.99;100.00
59971;BME280;45825;45.434;9.116;2023-11-19T03:06:22;100813.88;;;8.04;100.00
59971;BME280;45825;45.434;9.116;2023-11-19T03:08:48;100799.72;;;8.10;100.00
59971;BME280;45825;45.434;9.116;2023-11-19T03:11:14;100805.88;;;8.09;100.00
59971;BME280;45825;45.434;9.116;2023-11-19T03:13:39;100804.16;;;8.08;100.00
59971;BME280;45825;45.434;9.116;2023-11-19T03:16:05;100799.78;;;8.08;100.00
59971;BME280;45825;45.434;9.116;2023-11-19T03:18:31;100794.25;;;8.16;100.00
59971;BME280;45825;45.434;9.116;2023-11-19T03:20:56;100806.56;;;8.14;100.00
59971;BME280;45825;45.434;9.116;2023-11-19T03:23:24;100789.69;;;8.21;100.00
59971;BME280;45825;45.434;9.116;2023-11-19T03:25:49;100789.63;;;8.23;100.00
59971;BME280;45825;45.434;9.116;2023-11-19T03:28:14;100787.50;;;8.09;100.00
59971;BME280;45825;45.434;9.116;2023-11-19T03:30:40;100792.09;;;8.04;100.00
59971;BME280;45825;45.434;9.116;2023-11-19T03:33:05;100789.38;;;8.05;100.00
59971;BME280;45825;45.434;9.116;2023-11-19T03:35:30;100801.66;;;8.05;100.00
59971;BME280;45825;45.434;9.116;2023-11-19T03:37:56;100790.41;;;8.01;100.00
59971;BME280;45825;45.434;9.116;2023-11-19T03:40:21;100790.13;;;7.85;100.00
59971;BME280;45825;45.434;9.116;2023-11-19T03:42:48;100794.59;;;7.81;100.00
59971;BME280;45825;45.434;9.116;2023-11-19T03:45:13;100788.41;;;7.84;100.00
59971;BME280;45825;45.434;9.116;2023-11-19T03:47:41;100788.75;;;7.99;100.00
59971;BME280;45825;45.434;9.116;2023-11-19T03:50:06;100781.47;;;8.07;100.00
59971;BME280;45825;45.434;9.116;2023-11-19T03:52:33;100779.16;;;7.99;100.00
59971;BME280;45825;45.434;9.116;2023-11-19T03:54:58;100763.34;;;8.01;100.00
59971;BME280;45825;45.434;9.116;2023-11-19T03:57:24;100770.88;;;8.10;100.00
59971;BME280;45825;45.434;9.116;2023-11-19T03:59:49;100771.38;;;7.96;100.00
59971;BME280;45825;45.434;9.116;2023-11-19T04:02:15;100780.59;;;8.06;100.00
59971;BME280;45825;45.434;9.116;2023-11-19T04:04:41;100768.22;;;8.11;100.00
59971;BME280;45825;45.434;9.116;2023-11-19T04:07:06;100772.50;;;8.14;100.00
59971;BME280;45825;45.434;9.116;2023-11-19T04:09:32;100762.97;;;8.11;100.00
59971;BME280;45825;45.434;9.116;2023-11-19T04:12:03;100760.22;;;8.15;100.00
59971;BME280;45825;45.434;9.116;2023-11-19T04:14:28;100754.22;;;8.11;100.00
59971;BME280;45825;45.434;9.116;2023-11-19T04:16:54;100759.91;;;8.22;100.00
59971;BME280;45825;45.434;9.116;2023-11-19T04:19:19;100767.16;;;8.16;100.00
59971;BME280;45825;45.434;9.116;2023-11-19T04:21:45;100758.16;;;8.23;100.00
59971;BME280;45825;45.434;9.116;2023-11-19T04:24:11;100763.09;;;8.08;100.00
59971;BME280;45825;45.434;9.116;2023-11-19T04:26:44;100752.59;;;8.08;100.00
59971;BME280;45825;45.434;9.116;2023-11-19T04:29:14;100747.44;;;8.05;100.00
59971;BME280;45825;45.434;9.116;2023-11-19T04:31:40;100747.63;;;8.01;100.00
59971;BME280;45825;45.434;9.116;2023-11-19T04:34:06;100742.38;;;8.01;100.00
59971;BME280;45825;45.434;9.116;2023-11-19T04:36:32;100738.66;;;8.06;100.00
59971;BME280;45825;45.434;9.116;2023-11-19T04:38:59;100743.25;;;8.01;100.00
59971;BME280;45825;45.434;9.116;2023-11-19T04:41:25;100742.63;;;7.94;100.00
59971;BME280;45825;45.434;9.116;2023-11-19T04:43:50;100740.53;;;7.79;100.00
59971;BME280;45825;45.434;9.116;2023-11-19T04:46:15;100743.00;;;7.83;100.00
59971;BME280;45825;45.434;9.116;2023-11-19T04:48:41;100741.38;;;7.81;100.00
59971;BME280;45825;45.434;9.116;2023-11-19T04:51:07;100746.38;;;7.87;100.00
59971;BME280;45825;45.434;9.116;2023-11-19T04:53:34;100747.88;;;7.94;100.00
59971;BME280;45825;45.434;9.116;2023-11-19T04:55:59;100746.16;;;7.93;100.00
59971;BME280;45825;45.434;9.116;2023-11-19T04:58:25;100739.31;;;7.89;100.00
59971;BME280;45825;45.434;9.116;2023-11-19T05:00:50;100732.13;;;7.94;100.00
59971;BME280;45825;45.434;9.116;2023-11-19T05:03:15;100728.56;;;7.97;100.00
59971;BME280;45825;45.434;9.116;2023-11-19T05:05:41;100722.84;;;7.86;100.00
59971;BME280;45825;45.434;9.116;2023-11-19T05:08:06;100721.06;;;7.86;100.00
59971;BME280;45825;45.434;9.116;2023-11-19T05:10:31;100714.50;;;7.74;100.00
59971;BME280;45825;45.434;9.116;2023-11-19T05:12:57;100718.97;;;7.72;100.00
59971;BME280;45825;45.434;9.116;2023-11-19T05:15:22;100726.13;;;7.67;100.00
59971;BME280;45825;45.434;9.116;2023-11-19T05:17:48;100728.59;;;7.72;100.00
59971;BME280;45825;45.434;9.116;2023-11-19T05:20:13;100721.38;;;7.78;100.00
59971;BME280;45825;45.434;9.116;2023-11-19T05:22:42;100720.22;;;7.86;100.00
59971;BME280;45825;45.434;9.116;2023-11-19T05:25:07;100719.50;;;7.82;100.00
59971;BME280;45825;45.434;9.116;2023-11-19T05:27:34;100719.06;;;7.69;100.00
59971;BME280;45825;45.434;9.116;2023-11-19T05:30:01;100727.84;;;7.68;100.00
59971;BME280;45825;45.434;9.116;2023-11-19T05:32:26;100713.84;;;7.69;100.00
59971;BME280;45825;45.434;9.116;2023-11-19T05:34:51;100708.81;;;7.63;100.00
59971;BME280;45825;45.434;9.116;2023-11-19T05:37:17;100703.47;;;7.66;100.00
59971;BME280;45825;45.434;9.116;2023-11-19T05:39:44;100700.75;;;7.69;100.00
59971;BME280;45825;45.434;9.116;2023-11-19T05:42:10;100699.88;;;7.68;100.00
59971;BME280;45825;45.434;9.116;2023-11-19T05:44:35;100692.19;;;7.64;100.00
59971;BME280;45825;45.434;9.116;2023-11-19T05:47:02;100699.81;;;7.70;100.00
59971;BME280;45825;45.434;9.116;2023-11-19T05:49:27;100688.22;;;7.77;100.00
59971;BME280;45825;45.434;9.116;2023-11-19T05:51:52;100689.34;;;7.70;100.00
59971;BME280;45825;45.434;9.116;2023-11-19T05:54:20;100686.50;;;7.76;100.00
59971;BME280;45825;45.434;9.116;2023-11-19T05:56:49;100686.78;;;7.68;100.00
59971;BME280;45825;45.434;9.116;2023-11-19T05:59:14;100692.00;;;7.68;100.00
59971;BME280;45825;45.434;9.116;2023-11-19T06:01:43;100685.03;;;7.69;100.00
59971;BME280;45825;45.434;9.116;2023-11-19T06:04:09;100680.13;;;7.83;100.00
59971;BME280;45825;45.434;9.116;2023-11-19T06:06:35;100682.25;;;7.74;100.00
59971;BME280;45825;45.434;9.116;2023-11-19T06:09:01;100681.50;;;7.70;100.00
59971;BME280;45825;45.434;9.116;2023-11-19T06:11:27;100683.44;;;7.65;100.00
59971;BME280;45825;45.434;9.116;2023-11-19T06:13:52;100686.31;;;7.57;100.00
59971;BME280;45825;45.434;9.116;2023-11-19T06:16:18;100675.84;;;7.57;100.00
59971;BME280;45825;45.434;9.116;2023-11-19T06:18:43;100686.47;;;7.52;100.00
59971;BME280;45825;45.434;9.116;2023-11-19T06:21:09;100685.16;;;7.40;100.00
59971;BME280;45825;45.434;9.116;2023-11-19T06:23:35;100686.16;;;7.36;100.00
59971;BME280;45825;45.434;9.116;2023-11-19T06:26:00;100679.03;;;7.16;100.00
59971;BME280;45825;45.434;9.116;2023-11-19T06:28:26;100689.53;;;7.15;100.00
59971;BME280;45825;45.434;9.116;2023-11-19T06:30:51;100693.69;;;7.20;100.00
59971;BME280;45825;45.434;9.116;2023-11-19T06:33:17;100684.47;;;7.35;100.00
59971;BME280;45825;45.434;9.116;2023-11-19T06:35:42;100681.84;;;7.35;100.00
59971;BME280;45825;45.434;9.116;2023-11-19T06:38:07;100681.78;;;7.11;100.00
59971;BME280;45825;45.434;9.116;2023-11-19T06:40:33;100701.41;;;7.25;100.00
59971;BME280;45825;45.434;9.116;2023-11-19T06:43:00;100687.19;;;7.07;100.00
59971;BME280;45825;45.434;9.116;2023-11-19T06:45:25;100695.31;;;6.99;100.00
59971;BME280;45825;45.434;9.116;2023-11-19T06:47:50;100685.03;;;6.93;100.00
59971;BME280;45825;45.434;9.116;2023-11-19T06:50:16;100699.59;;;7.02;100.00
59971;BME280;45825;45.434;9.116;2023-11-19T06:52:41;100709.97;;;7.03;100.00
59971;BME280;45825;45.434;9.116;2023-11-19T06:55:07;100704.69;;;7.05;100.00
59971;BME280;45825;45.434;9.116;2023-11-19T06:57:32;100699.44;;;7.06;100.00
59971;BME280;45825;45.434;9.116;2023-11-19T06:59:58;100706.44;;;7.04;100.00
59971;BME280;45825;45.434;9.116;2023-11-19T07:02:24;100699.16;;;7.14;100.00
59971;BME280;45825;45.434;9.116;2023-11-19T07:04:50;100700.66;;;7.21;100.00
59971;BME280;45825;45.434;9.116;2023-11-19T07:07:15;100698.41;;;7.10;100.00
59971;BME280;45825;45.434;9.116;2023-11-19T07:09:41;100688.31;;;7.25;100.00
59971;BME280;45825;45.434;9.116;2023-11-19T07:12:06;100684.75;;;7.27;100.00
59971;BME280;45825;45.434;9.116;2023-11-19T07:14:32;100686.13;;;7.38;100.00
59971;BME280;45825;45.434;9.116;2023-11-19T07:16:57;100691.84;;;7.49;100.00
59971;BME280;45825;45.434;9.116;2023-11-19T07:19:22;100690.75;;;7.55;100.00
59971;BME280;45825;45.434;9.116;2023-11-19T07:21:48;100696.28;;;7.47;100.00
59971;BME280;45825;45.434;9.116;2023-11-19T07:24:13;100695.16;;;7.54;100.00
59971;BME280;45825;45.434;9.116;2023-11-19T07:26:43;100714.28;;;7.57;100.00
59971;BME280;45825;45.434;9.116;2023-11-19T07:29:09;100705.94;;;7.45;100.00
59971;BME280;45825;45.434;9.116;2023-11-19T07:31:34;100701.97;;;7.59;100.00
59971;BME280;45825;45.434;9.116;2023-11-19T07:33:59;100698.56;;;7.57;100.00
59971;BME280;45825;45.434;9.116;2023-11-19T07:36:24;100702.25;;;7.51;100.00
59971;BME280;45825;45.434;9.116;2023-11-19T07:38:50;100704.44;;;7.63;100.00
59971;BME280;45825;45.434;9.116;2023-11-19T07:41:15;100710.63;;;7.61;100.00
59971;BME280;45825;45.434;9.116;2023-11-19T07:43:43;100704.44;;;7.63;100.00
59971;BME280;45825;45.434;9.116;2023-11-19T07:46:13;100708.19;;;7.80;100.00
59971;BME280;45825;45.434;9.116;2023-11-19T07:48:39;100707.97;;;7.86;100.00
59971;BME280;45825;45.434;9.116;2023-11-19T07:51:05;100703.53;;;7.88;100.00
59971;BME280;45825;45.434;9.116;2023-11-19T07:53:30;100704.16;;;7.95;100.00
59971;BME280;45825;45.434;9.116;2023-11-19T07:55:55;100698.00;;;7.96;100.00
59971;BME280;45825;45.434;9.116;2023-11-19T07:58:21;100703.72;;;8.07;100.00
59971;BME280;45825;45.434;9.116;2023-11-19T08:00:46;100686.19;;;8.08;100.00
59971;BME280;45825;45.434;9.116;2023-11-19T08:03:11;100695.38;;;8.20;100.00
59971;BME280;45825;45.434;9.116;2023-11-19T08:05:37;100683.97;;;8.21;100.00
59971;BME280;45825;45.434;9.116;2023-11-19T08:08:02;100684.59;;;8.28;100.00
59971;BME280;45825;45.434;9.116;2023-11-19T08:10:27;100681.00;;;8.30;100.00
59971;BME280;45825;45.434;9.116;2023-11-19T08:12:53;100678.81;;;8.42;100.00
59971;BME280;45825;45.434;9.116;2023-11-19T08:15:19;100668.91;;;8.48;100.00
59971;BME280;45825;45.434;9.116;2023-11-19T08:17:44;100678.25;;;8.56;100.00
59971;BME280;45825;45.434;9.116;2023-11-19T08:20:10;100690.34;;;8.60;100.00
59971;BME280;45825;45.434;9.116;2023-11-19T08:22:38;100683.69;;;8.73;100.00
59971;BME280;45825;45.434;9.116;2023-11-19T08:25:05;100689.38;;;8.83;100.00
59971;BME280;45825;45.434;9.116;2023-11-19T08:27:30;100685.88;;;8.84;100.00
59971;BME280;45825;45.434;9.116;2023-11-19T08:29:56;100696.69;;;8.97;100.00
59971;BME280;45825;45.434;9.116;2023-11-19T08:32:25;100700.78;;;9.04;98.45
59971;BME280;45825;45.434;9.116;2023-11-19T08:34:51;100700.78;;;9.04;97.79
59971;BME280;45825;45.434;9.116;2023-11-19T08:37:16;100703.84;;;9.14;96.69
59971;BME280;45825;45.434;9.116;2023-11-19T08:39:43;100695.88;;;9.17;97.27
59971;BME280;45825;45.434;9.116;2023-11-19T08:42:08;100700.84;;;9.23;95.74
59971;BME280;45825;45.434;9.116;2023-11-19T08:44:34;100693.63;;;9.29;95.35
59971;BME280;45825;45.434;9.116;2023-11-19T08:46:59;100695.25;;;9.31;94.73
59971;BME280;45825;45.434;9.116;2023-11-19T08:49:24;100705.22;;;9.64;89.72
59971;BME280;45825;45.434;9.116;2023-11-19T08:51:50;100708.13;;;9.58;89.54
59971;BME280;45825;45.434;9.116;2023-11-19T08:54:16;100706.22;;;9.62;88.39
59971;BME280;45825;45.434;9.116;2023-11-19T08:56:41;100716.84;;;9.59;89.63
59971;BME280;45825;45.434;9.116;2023-11-19T08:59:06;100711.19;;;9.68;85.36
59971;BME280;45825;45.434;9.116;2023-11-19T09:01:32;100697.09;;;9.69;82.34
59971;BME280;45825;45.434;9.116;2023-11-19T09:03:57;100707.94;;;9.82;77.22
59971;BME280;45825;45.434;9.116;2023-11-19T09:06:22;100712.00;;;9.89;77.43
59971;BME280;45825;45.434;9.116;2023-11-19T09:08:48;100705.59;;;9.95;73.54
59971;BME280;45825;45.434;9.116;2023-11-19T09:11:13;100692.16;;;10.01;73.57
59971;BME280;45825;45.434;9.116;2023-11-19T09:13:38;100701.28;;;10.13;71.89
59971;BME280;45825;45.434;9.116;2023-11-19T09:16:04;100692.41;;;10.16;71.05
59971;BME280;45825;45.434;9.116;2023-11-19T09:18:30;100695.53;;;10.24;69.67
59971;BME280;45825;45.434;9.116;2023-11-19T09:20:55;100693.56;;;10.28;69.85
59971;BME280;45825;45.434;9.116;2023-11-19T09:23:21;100695.31;;;10.48;67.17
59971;BME280;45825;45.434;9.116;2023-11-19T09:25:46;100703.31;;;10.82;72.20
59971;BME280;45825;45.434;9.116;2023-11-19T09:28:12;100694.47;;;10.83;74.51
59971;BME280;45825;45.434;9.116;2023-11-19T09:30:39;100710.16;;;10.86;75.64
59971;BME280;45825;45.434;9.116;2023-11-19T09:33:04;100695.38;;;11.01;75.71
59971;BME280;45825;45.434;9.116;2023-11-19T09:35:30;100695.44;;;11.17;74.86
59971;BME280;45825;45.434;9.116;2023-11-19T09:37:55;100699.75;;;11.36;77.35
59971;BME280;45825;45.434;9.116;2023-11-19T09:40:21;100711.69;;;11.25;78.70
59971;BME280;45825;45.434;9.116;2023-11-19T09:42:47;100712.06;;;11.17;78.93
59971;BME280;45825;45.434;9.116;2023-11-19T09:45:14;100690.22;;;11.33;78.85
59971;BME280;45825;45.434;9.116;2023-11-19T09:47:44;100702.19;;;11.56;77.47
59971;BME280;45825;45.434;9.116;2023-11-19T09:50:17;100690.13;;;11.52;78.51
59971;BME280;45825;45.434;9.116;2023-11-19T09:52:44;100704.47;;;11.29;79.76
59971;BME280;45825;45.434;9.116;2023-11-19T09:55:10;100697.28;;;11.32;81.42
59971;BME280;45825;45.434;9.116;2023-11-19T09:57:40;100676.03;;;11.36;82.71
59971;BME280;45825;45.434;9.116;2023-11-19T10:00:07;100697.41;;;11.47;79.97
59971;BME280;45825;45.434;9.116;2023-11-19T10:02:35;100678.66;;;11.36;81.94
59971;BME280;45825;45.434;9.116;2023-11-19T10:05:04;100691.84;;;11.36;84.64
59971;BME280;45825;45.434;9.116;2023-11-19T10:07:31;100668.09;;;11.53;84.62
59971;BME280;45825;45.434;9.116;2023-11-19T10:10:00;100708.31;;;11.57;83.23
59971;BME280;45825;45.434;9.116;2023-11-19T10:12:27;100662.00;;;11.69;81.59
59971;BME280;45825;45.434;9.116;2023-11-19T10:14:56;100680.06;;;11.77;79.83
59971;BME280;45825;45.434;9.116;2023-11-19T10:17:27;100651.84;;;11.95;79.94
59971;BME280;45825;45.434;9.116;2023-11-19T10:19:54;100650.28;;;12.39;77.97
59971;BME280;45825;45.434;9.116;2023-11-19T10:22:19;100646.22;;;12.80;72.34
59971;BME280;45825;45.434;9.116;2023-11-19T10:24:44;100652.72;;;12.89;71.89
59971;BME280;45825;45.434;9.116;2023-11-19T10:27:10;100644.00;;;13.17;69.17
59971;BME280;45825;45.434;9.116;2023-11-19T10:29:38;100653.00;;;13.58;67.04
59971;BME280;45825;45.434;9.116;2023-11-19T10:32:04;100652.81;;;14.18;64.02
59971;BME280;45825;45.434;9.116;2023-11-19T10:34:30;100665.06;;;13.91;63.84
59971;BME280;45825;45.434;9.116;2023-11-19T10:36:55;100643.06;;;13.76;63.35
59971;BME280;45825;45.434;9.116;2023-11-19T10:39:21;100643.16;;;14.31;62.09
59971;BME280;45825;45.434;9.116;2023-11-19T10:41:46;100641.63;;;14.27;59.17
59971;BME280;45825;45.434;9.116;2023-11-19T10:44:11;100643.69;;;14.36;59.22
59971;BME280;45825;45.434;9.116;2023-11-19T10:46:38;100636.78;;;14.34;60.84
59971;BME280;45825;45.434;9.116;2023-11-19T10:49:04;100638.97;;;14.42;59.47
59971;BME280;45825;45.434;9.116;2023-11-19T10:51:32;100624.16;;;14.24;60.77
59971;BME280;45825;45.434;9.116;2023-11-19T10:54:06;100627.19;;;14.46;59.00
59971;BME280;45825;45.434;9.116;2023-11-19T10:56:33;100616.91;;;14.41;58.07
59971;BME280;45825;45.434;9.116;2023-11-19T10:58:59;100609.44;;;14.61;57.79
59971;BME280;45825;45.434;9.116;2023-11-19T11:01:27;100625.22;;;15.16;55.75
59971;BME280;45825;45.434;9.116;2023-11-19T11:03:59;100609.59;;;15.37;54.36
59971;BME280;45825;45.434;9.116;2023-11-19T11:06:26;100596.94;;;15.67;53.34
59971;BME280;45825;45.434;9.116;2023-11-19T11:08:52;100597.22;;;16.84;51.33
59971;BME280;45825;45.434;9.116;2023-11-19T11:11:18;100584.13;;;17.05;49.98
59971;BME280;45825;45.434;9.116;2023-11-19T11:13:47;100593.69;;;17.53;48.29
59971;BME280;45825;45.434;9.116;2023-11-19T11:16:13;100587.72;;;17.72;47.10
59971;BME280;45825;45.434;9.116;2023-11-19T11:18:39;100595.44;;;18.31;46.66
59971;BME280;45825;45.434;9.116;2023-11-19T11:21:09;100599.56;;;18.99;46.23
59971;BME280;45825;45.434;9.116;2023-11-19T11:31:48;100570.91;;;19.22;41.88
59971;BME280;45825;45.434;9.116;2023-11-19T11:37:27;100582.09;;;20.08;42.95
59971;BME280;45825;45.434;9.116;2023-11-19T11:39:53;100576.22;;;21.11;40.72
59971;BME280;45825;45.434;9.116;2023-11-19T11:45:07;100558.44;;;22.12;39.28
59971;BME280;45825;45.434;9.116;2023-11-19T11:50:08;100553.22;;;22.29;39.27
59971;BME280;45825;45.434;9.116;2023-11-19T11:55:26;100549.91;;;22.80;41.37
59971;BME280;45825;45.434;9.116;2023-11-19T11:57:51;100552.81;;;23.64;32.72
59971;BME280;45825;45.434;9.116;2023-11-19T12:00:33;100536.44;;;24.09;32.88
59971;BME280;45825;45.434;9.116;2023-11-19T12:03:04;100532.28;;;25.04;30.76
59971;BME280;45825;45.434;9.116;2023-11-19T12:05:30;100539.72;;;23.26;35.06
59971;BME280;45825;45.434;9.116;2023-11-19T12:08:06;100524.63;;;23.68;33.33
59971;BME280;45825;45.434;9.116;2023-11-19T12:10:52;100514.59;;;24.28;32.71
59971;BME280;45825;45.434;9.116;2023-11-19T12:13:18;100504.50;;;24.47;33.39
59971;BME280;45825;45.434;9.116;2023-11-19T12:18:26;100493.28;;;24.19;35.52
59971;BME280;45825;45.434;9.116;2023-11-19T12:20:52;100502.69;;;24.96;31.92
59971;BME280;45825;45.434;9.116;2023-11-19T12:23:17;100503.47;;;25.13;30.61
59971;BME280;45825;45.434;9.116;2023-11-19T12:25:42;100502.03;;;24.94;34.34
59971;BME280;45825;45.434;9.116;2023-11-19T12:28:13;100498.91;;;25.45;30.73
59971;BME280;45825;45.434;9.116;2023-11-19T12:30:39;100493.81;;;26.05;33.36
59971;BME280;45825;45.434;9.116;2023-11-19T12:33:08;100491.00;;;26.37;30.51
59971;BME280;45825;45.434;9.116;2023-11-19T12:35:39;100490.56;;;27.09;29.32
59971;BME280;45825;45.434;9.116;2023-11-19T12:38:04;100494.75;;;26.81;31.87
59971;BME280;45825;45.434;9.116;2023-11-19T12:40:30;100488.69;;;27.46;29.82
59971;BME280;45825;45.434;9.116;2023-11-19T12:42:55;100486.41;;;26.91;31.58
59971;BME280;45825;45.434;9.116;2023-11-19T12:45:21;100474.88;;;27.71;29.86
59971;BME280;45825;45.434;9.116;2023-11-19T12:47:48;100483.13;;;27.11;31.79
59971;BME280;45825;45.434;9.116;2023-11-19T12:50:15;100474.06;;;27.77;29.85
59971;BME280;45825;45.434;9.116;2023-11-19T12:52:42;100476.22;;;27.08;30.49
59971;BME280;45825;45.434;9.116;2023-11-19T12:55:27;100472.88;;;27.06;31.05
59971;BME280;45825;45.434;9.116;2023-11-19T12:57:53;100473.03;;;27.19;32.43
59971;BME280;45825;45.434;9.116;2023-11-19T13:00:24;100468.13;;;28.39;26.47
59971;BME280;45825;45.434;9.116;2023-11-19T13:02:51;100464.94;;;28.28;27.37
59971;BME280;45825;45.434;9.116;2023-11-19T13:05:31;100453.66;;;27.96;30.00
59971;BME280;45825;45.434;9.116;2023-11-19T13:08:07;100456.78;;;28.92;27.75